sensor_id;sensor_type;location;lat;lon;timestamp;temperature;humidity
48328;DHT22;34136;51.022;7.082;2023-02-21T00:02:16;8.80;14.30
48328;DHT22;34136;51.022;7.082;2023-02-21T00:05:02;8.80;14.70
48328;DHT22;34136;51.022;7.082;2023-02-21T00:07:49;8.80;14.90
48328;DHT22;34136;51.022;7.082;2023-02-21T00:10:35;8.90;15.00
48328;DHT22;34136;51.022;7.082;2023-02-21T00:13:21;8.90;14.90
48328;DHT22;34136;51.022;7.082;2023-02-21T00:16:07;8.90;14.80
48328;DHT22;34136;51.022;7.082;2023-02-21T00:18:54;8.90;14.40
48328;DHT22;34136;51.022;7.082;2023-02-21T00:21:40;8.90;14.30
48328;DHT22;34136;51.022;7.082;2023-02-21T00:24:26;8.90;14.60
48328;DHT22;34136;51.022;7.082;2023-02-21T00:27:12;8.90;14.70
48328;DHT22;34136;51.022;7.082;2023-02-21T00:29:58;8.90;14.70
48328;DHT22;34136;51.022;7.082;2023-02-21T00:32:44;8.90;14.50
48328;DHT22;34136;51.022;7.082;2023-02-21T00:35:31;8.90;14.40
48328;DHT22;34136;51.022;7.082;2023-02-21T00:38:16;9.00;14.20
48328;DHT22;34136;51.022;7.082;2023-02-21T00:41:02;9.00;14.10
48328;DHT22;34136;51.022;7.082;2023-02-21T00:43:49;9.00;14.00
48328;DHT22;34136;51.022;7.082;2023-02-21T00:46:35;8.90;14.20
48328;DHT22;34136;51.022;7.082;2023-02-21T00:49:21;8.90;14.30
48328;DHT22;34136;51.022;7.082;2023-02-21T00:52:08;8.90;14.60
48328;DHT22;34136;51.022;7.082;2023-02-21T00:54:54;8.90;15.10
48328;DHT22;34136;51.022;7.082;2023-02-21T00:57:40;8.90;15.10
48328;DHT22;34136;51.022;7.082;2023-02-21T01:00:26;8.90;14.90
48328;DHT22;34136;51.022;7.082;2023-02-21T01:03:13;8.90;15.00
48328;DHT22;34136;51.022;7.082;2023-02-21T01:05:59;8.80;15.90
48328;DHT22;34136;51.022;7.082;2023-02-21T01:08:46;8.80;15.50
48328;DHT22;34136;51.022;7.082;2023-02-21T01:11:32;8.60;16.20
48328;DHT22;34136;51.022;7.082;2023-02-21T01:14:18;8.60;16.80
48328;DHT22;34136;51.022;7.082;2023-02-21T01:17:04;8.50;17.10
48328;DHT22;34136;51.022;7.082;2023-02-21T01:19:51;8.50;17.00
48328;DHT22;34136;51.022;7.082;2023-02-21T01:22:37;8.50;17.50
48328;DHT22;34136;51.022;7.082;2023-02-21T01:25:23;8.50;17.60
48328;DHT22;34136;51.022;7.082;2023-02-21T01:28:10;8.40;17.90
48328;DHT22;34136;51.022;7.082;2023-02-21T01:30:57;8.50;17.80
48328;DHT22;34136;51.022;7.082;2023-02-21T01:33:43;8.50;17.90
48328;DHT22;34136;51.022;7.082;2023-02-21T01:36:30;8.50;18.00
48328;DHT22;34136;51.022;7.082;2023-02-21T01:39:16;8.50;17.80
48328;DHT22;34136;51.022;7.082;2023-02-21T01:42:02;8.50;18.10
48328;DHT22;34136;51.022;7.082;2023-02-21T01:48:11;8.60;17.50
48328;DHT22;34136;51.022;7.082;2023-02-21T01:50:59;8.50;17.60
48328;DHT22;34136;51.022;7.082;2023-02-21T01:53:47;8.50;17.50
48328;DHT22;34136;51.022;7.082;2023-02-21T01:56:34;8.50;18.20
48328;DHT22;34136;51.022;7.082;2023-02-21T01:59:22;8.60;17.90
48328;DHT22;34136;51.022;7.082;2023-02-21T02:05:02;8.60;17.50
48328;DHT22;34136;51.022;7.082;2023-02-21T02:07:51;8.60;17.90
48328;DHT22;34136;51.022;7.082;2023-02-21T02:10:38;8.60;17.70
48328;DHT22;34136;51.022;7.082;2023-02-21T02:16:27;8.50;18.10
48328;DHT22;34136;51.022;7.082;2023-02-21T02:19:36;8.50;18.10
48328;DHT22;34136;51.022;7.082;2023-02-21T02:25:42;8.50;18.60
48328;DHT22;34136;51.022;7.082;2023-02-21T02:35:08;8.60;18.00
48328;DHT22;34136;51.022;7.082;2023-02-21T02:38:35;8.60;17.90
48328;DHT22;34136;51.022;7.082;2023-02-21T02:41:40;8.60;18.40
48328;DHT22;34136;51.022;7.082;2023-02-21T02:44:38;8.60;18.20
48328;DHT22;34136;51.022;7.082;2023-02-21T02:47:30;8.60;18.30
48328;DHT22;34136;51.022;7.082;2023-02-21T02:50:19;8.60;18.20
48328;DHT22;34136;51.022;7.082;2023-02-21T02:53:06;8.60;17.90
48328;DHT22;34136;51.022;7.082;2023-02-21T02:56:05;8.70;17.70
48328;DHT22;34136;51.022;7.082;2023-02-21T02:58:59;8.70;17.50
48328;DHT22;34136;51.022;7.082;2023-02-21T03:08:19;8.80;17.30
48328;DHT22;34136;51.022;7.082;2023-02-21T03:11:18;8.80;17.10
48328;DHT22;34136;51.022;7.082;2023-02-21T03:14:28;8.80;17.00
48328;DHT22;34136;51.022;7.082;2023-02-21T03:17:22;8.80;16.90
48328;DHT22;34136;51.022;7.082;2023-02-21T03:20:11;8.80;16.90
48328;DHT22;34136;51.022;7.082;2023-02-21T03:22:59;8.80;16.80
48328;DHT22;34136;51.022;7.082;2023-02-21T03:25:49;8.80;16.70
48328;DHT22;34136;51.022;7.082;2023-02-21T03:28:37;8.80;16.90
48328;DHT22;34136;51.022;7.082;2023-02-21T03:31:35;8.80;17.00
48328;DHT22;34136;51.022;7.082;2023-02-21T03:34:23;8.90;17.10
48328;DHT22;34136;51.022;7.082;2023-02-21T03:40:27;8.80;16.80
48328;DHT22;34136;51.022;7.082;2023-02-21T03:43:15;8.80;16.80
48328;DHT22;34136;51.022;7.082;2023-02-21T03:46:12;8.80;16.90
48328;DHT22;34136;51.022;7.082;2023-02-21T03:48:58;8.80;16.90
48328;DHT22;34136;51.022;7.082;2023-02-21T03:51:48;8.80;16.80
48328;DHT22;34136;51.022;7.082;2023-02-21T03:54:34;8.80;16.60
48328;DHT22;34136;51.022;7.082;2023-02-21T03:57:21;8.70;16.80
48328;DHT22;34136;51.022;7.082;2023-02-21T04:00:10;8.70;16.70
48328;DHT22;34136;51.022;7.082;2023-02-21T04:03:05;8.80;16.80
48328;DHT22;34136;51.022;7.082;2023-02-21T04:05:58;8.80;16.60
48328;DHT22;34136;51.022;7.082;2023-02-21T04:08:44;8.80;16.40
48328;DHT22;34136;51.022;7.082;2023-02-21T04:11:31;8.80;16.40
48328;DHT22;34136;51.022;7.082;2023-02-21T04:14:18;8.80;16.30
48328;DHT22;34136;51.022;7.082;2023-02-21T04:17:04;8.80;16.20
48328;DHT22;34136;51.022;7.082;2023-02-21T04:19:51;8.80;16.10
48328;DHT22;34136;51.022;7.082;2023-02-21T04:22:38;8.80;16.00
48328;DHT22;34136;51.022;7.082;2023-02-21T04:25:25;8.80;16.60
48328;DHT22;34136;51.022;7.082;2023-02-21T04:28:17;8.80;16.20
48328;DHT22;34136;51.022;7.082;2023-02-21T04:31:03;8.80;16.60
48328;DHT22;34136;51.022;7.082;2023-02-21T04:33:50;8.70;17.20
48328;DHT22;34136;51.022;7.082;2023-02-21T04:36:43;8.80;17.30
48328;DHT22;34136;51.022;7.082;2023-02-21T04:39:29;8.70;17.20
48328;DHT22;34136;51.022;7.082;2023-02-21T04:42:15;8.70;17.20
48328;DHT22;34136;51.022;7.082;2023-02-21T04:45:02;8.80;17.00
48328;DHT22;34136;51.022;7.082;2023-02-21T04:47:48;8.70;17.30
48328;DHT22;34136;51.022;7.082;2023-02-21T04:50:35;8.70;17.50
48328;DHT22;34136;51.022;7.082;2023-02-21T04:53:21;8.70;17.40
48328;DHT22;34136;51.022;7.082;2023-02-21T04:56:07;8.70;17.40
48328;DHT22;34136;51.022;7.082;2023-02-21T04:58:55;8.70;17.70
48328;DHT22;34136;51.022;7.082;2023-02-21T05:01:41;8.70;17.50
48328;DHT22;34136;51.022;7.082;2023-02-21T05:04:27;8.70;17.20
48328;DHT22;34136;51.022;7.082;2023-02-21T05:07:14;8.70;17.30
48328;DHT22;34136;51.022;7.082;2023-02-21T05:10:00;8.70;17.50
48328;DHT22;34136;51.022;7.082;2023-02-21T05:12:46;8.70;17.30
48328;DHT22;34136;51.022;7.082;2023-02-21T05:15:33;8.70;17.50
48328;DHT22;34136;51.022;7.082;2023-02-21T05:18:19;8.70;17.40
48328;DHT22;34136;51.022;7.082;2023-02-21T05:21:05;8.80;17.20
48328;DHT22;34136;51.022;7.082;2023-02-21T05:23:52;8.70;17.20
48328;DHT22;34136;51.022;7.082;2023-02-21T05:26:37;8.70;17.80
48328;DHT22;34136;51.022;7.082;2023-02-21T05:29:25;8.70;17.80
48328;DHT22;34136;51.022;7.082;2023-02-21T05:32:11;8.70;17.80
48328;DHT22;34136;51.022;7.082;2023-02-21T05:34:58;8.70;17.70
48328;DHT22;34136;51.022;7.082;2023-02-21T05:37:44;8.70;17.80
48328;DHT22;34136;51.022;7.082;2023-02-21T05:40:30;8.80;17.30
48328;DHT22;34136;51.022;7.082;2023-02-21T05:43:18;8.60;17.00
48328;DHT22;34136;51.022;7.082;2023-02-21T05:46:04;8.60;17.50
48328;DHT22;34136;51.022;7.082;2023-02-21T05:48:51;8.60;17.40
48328;DHT22;34136;51.022;7.082;2023-02-21T05:51:40;8.70;17.20
48328;DHT22;34136;51.022;7.082;2023-02-21T05:54:26;8.70;17.10
48328;DHT22;34136;51.022;7.082;2023-02-21T05:57:13;8.70;16.80
48328;DHT22;34136;51.022;7.082;2023-02-21T05:59:59;8.70;16.70
48328;DHT22;34136;51.022;7.082;2023-02-21T06:02:45;8.70;16.30
48328;DHT22;34136;51.022;7.082;2023-02-21T06:05:32;8.70;16.80
48328;DHT22;34136;51.022;7.082;2023-02-21T06:08:18;8.70;16.70
48328;DHT22;34136;51.022;7.082;2023-02-21T06:11:04;8.70;16.60
48328;DHT22;34136;51.022;7.082;2023-02-21T06:13:52;8.70;16.70
48328;DHT22;34136;51.022;7.082;2023-02-21T06:16:38;8.70;16.40
48328;DHT22;34136;51.022;7.082;2023-02-21T06:19:25;8.70;16.50
48328;DHT22;34136;51.022;7.082;2023-02-21T06:22:11;8.70;16.40
48328;DHT22;34136;51.022;7.082;2023-02-21T06:24:58;8.70;16.30
48328;DHT22;34136;51.022;7.082;2023-02-21T06:27:44;8.70;16.30
48328;DHT22;34136;51.022;7.082;2023-02-21T06:30:30;8.70;16.50
48328;DHT22;34136;51.022;7.082;2023-02-21T06:33:19;8.70;16.60
48328;DHT22;34136;51.022;7.082;2023-02-21T06:36:09;8.60;16.60
48328;DHT22;34136;51.022;7.082;2023-02-21T06:38:57;8.60;16.80
48328;DHT22;34136;51.022;7.082;2023-02-21T06:41:43;8.60;17.10
48328;DHT22;34136;51.022;7.082;2023-02-21T06:44:30;8.60;17.20
48328;DHT22;34136;51.022;7.082;2023-02-21T06:47:16;8.70;17.00
48328;DHT22;34136;51.022;7.082;2023-02-21T06:50:03;8.60;17.00
48328;DHT22;34136;51.022;7.082;2023-02-21T06:52:50;8.60;17.50
48328;DHT22;34136;51.022;7.082;2023-02-21T06:55:37;8.60;17.60
48328;DHT22;34136;51.022;7.082;2023-02-21T06:58:23;8.50;17.80
48328;DHT22;34136;51.022;7.082;2023-02-21T07:01:09;8.50;18.20
48328;DHT22;34136;51.022;7.082;2023-02-21T07:03:57;8.60;18.00
48328;DHT22;34136;51.022;7.082;2023-02-21T07:06:43;8.50;18.20
48328;DHT22;34136;51.022;7.082;2023-02-21T07:09:32;8.60;18.10
48328;DHT22;34136;51.022;7.082;2023-02-21T07:12:19;8.60;18.10
48328;DHT22;34136;51.022;7.082;2023-02-21T07:15:06;8.60;17.80
48328;DHT22;34136;51.022;7.082;2023-02-21T07:17:55;8.60;18.10
48328;DHT22;34136;51.022;7.082;2023-02-21T07:20:41;8.40;19.50
48328;DHT22;34136;51.022;7.082;2023-02-21T07:23:27;8.40;19.80
48328;DHT22;34136;51.022;7.082;2023-02-21T07:26:14;8.40;19.90
48328;DHT22;34136;51.022;7.082;2023-02-21T07:29:00;8.40;19.80
48328;DHT22;34136;51.022;7.082;2023-02-21T07:31:46;8.40;20.00
48328;DHT22;34136;51.022;7.082;2023-02-21T07:34:32;8.50;20.50
48328;DHT22;34136;51.022;7.082;2023-02-21T07:37:19;8.50;20.70
48328;DHT22;34136;51.022;7.082;2023-02-21T07:40:05;8.50;20.50
48328;DHT22;34136;51.022;7.082;2023-02-21T07:42:51;8.50;19.90
48328;DHT22;34136;51.022;7.082;2023-02-21T07:45:38;8.50;20.00
48328;DHT22;34136;51.022;7.082;2023-02-21T07:48:24;8.50;20.40
48328;DHT22;34136;51.022;7.082;2023-02-21T07:51:11;8.50;20.50
48328;DHT22;34136;51.022;7.082;2023-02-21T07:53:57;8.60;20.30
48328;DHT22;34136;51.022;7.082;2023-02-21T07:56:45;8.60;20.00
48328;DHT22;34136;51.022;7.082;2023-02-21T07:59:32;8.60;19.70
48328;DHT22;34136;51.022;7.082;2023-02-21T08:02:18;8.60;19.80
48328;DHT22;34136;51.022;7.082;2023-02-21T08:05:06;8.60;19.60
48328;DHT22;34136;51.022;7.082;2023-02-21T08:07:53;8.60;19.70
48328;DHT22;34136;51.022;7.082;2023-02-21T08:10:39;8.60;19.60
48328;DHT22;34136;51.022;7.082;2023-02-21T08:13:26;8.70;19.60
48328;DHT22;34136;51.022;7.082;2023-02-21T08:16:12;8.70;19.30
48328;DHT22;34136;51.022;7.082;2023-02-21T08:18:59;8.70;19.20
48328;DHT22;34136;51.022;7.082;2023-02-21T08:21:46;8.70;19.30
48328;DHT22;34136;51.022;7.082;2023-02-21T08:24:33;8.60;19.80
48328;DHT22;34136;51.022;7.082;2023-02-21T08:27:19;8.50;20.20
48328;DHT22;34136;51.022;7.082;2023-02-21T08:30:07;8.60;20.30
48328;DHT22;34136;51.022;7.082;2023-02-21T08:32:53;8.70;20.00
48328;DHT22;34136;51.022;7.082;2023-02-21T08:35:39;8.60;20.00
48328;DHT22;34136;51.022;7.082;2023-02-21T08:38:26;8.70;20.10
48328;DHT22;34136;51.022;7.082;2023-02-21T08:41:12;8.70;20.00
48328;DHT22;34136;51.022;7.082;2023-02-21T08:43:58;8.70;20.30
48328;DHT22;34136;51.022;7.082;2023-02-21T08:46:44;8.80;20.10
48328;DHT22;34136;51.022;7.082;2023-02-21T08:49:30;8.70;20.00
48328;DHT22;34136;51.022;7.082;2023-02-21T08:52:18;8.70;20.50
48328;DHT22;34136;51.022;7.082;2023-02-21T08:55:05;8.60;20.40
48328;DHT22;34136;51.022;7.082;2023-02-21T08:57:53;8.60;20.70
48328;DHT22;34136;51.022;7.082;2023-02-21T09:00:39;8.60;21.10
48328;DHT22;34136;51.022;7.082;2023-02-21T09:03:25;8.60;21.20
48328;DHT22;34136;51.022;7.082;2023-02-21T09:06:12;8.60;21.20
48328;DHT22;34136;51.022;7.082;2023-02-21T09:08:58;8.50;21.60
48328;DHT22;34136;51.022;7.082;2023-02-21T09:11:44;8.50;22.00
48328;DHT22;34136;51.022;7.082;2023-02-21T09:14:31;8.50;22.20
48328;DHT22;34136;51.022;7.082;2023-02-21T09:17:18;8.60;22.30
48328;DHT22;34136;51.022;7.082;2023-02-21T09:20:07;8.70;21.70
48328;DHT22;34136;51.022;7.082;2023-02-21T09:22:54;8.70;21.20
48328;DHT22;34136;51.022;7.082;2023-02-21T09:25:40;8.70;21.10
48328;DHT22;34136;51.022;7.082;2023-02-21T09:28:27;8.60;21.60
48328;DHT22;34136;51.022;7.082;2023-02-21T09:31:13;8.70;22.00
48328;DHT22;34136;51.022;7.082;2023-02-21T09:34:00;8.70;22.10
48328;DHT22;34136;51.022;7.082;2023-02-21T09:36:46;8.70;21.80
48328;DHT22;34136;51.022;7.082;2023-02-21T09:39:32;8.70;21.50
48328;DHT22;34136;51.022;7.082;2023-02-21T09:42:21;8.60;21.90
48328;DHT22;34136;51.022;7.082;2023-02-21T09:45:14;8.60;22.00
48328;DHT22;34136;51.022;7.082;2023-02-21T09:48:05;8.50;23.00
48328;DHT22;34136;51.022;7.082;2023-02-21T09:50:56;8.60;23.20
48328;DHT22;34136;51.022;7.082;2023-02-21T09:53:46;8.60;23.20
48328;DHT22;34136;51.022;7.082;2023-02-21T09:56:37;8.50;23.50
48328;DHT22;34136;51.022;7.082;2023-02-21T09:59:24;8.60;23.40
48328;DHT22;34136;51.022;7.082;2023-02-21T10:08:31;8.80;23.00
48328;DHT22;34136;51.022;7.082;2023-02-21T10:14:29;8.60;23.70
48328;DHT22;34136;51.022;7.082;2023-02-21T10:17:35;8.60;24.30
48328;DHT22;34136;51.022;7.082;2023-02-21T10:23:30;8.50;24.60
48328;DHT22;34136;51.022;7.082;2023-02-21T10:26:24;8.60;24.90
48328;DHT22;34136;51.022;7.082;2023-02-21T10:32:22;8.70;24.70
48328;DHT22;34136;51.022;7.082;2023-02-21T10:35:09;8.80;24.40
48328;DHT22;34136;51.022;7.082;2023-02-21T10:37:59;8.70;23.90
48328;DHT22;34136;51.022;7.082;2023-02-21T10:40:55;8.70;24.50
48328;DHT22;34136;51.022;7.082;2023-02-21T10:43:45;8.70;24.60
48328;DHT22;34136;51.022;7.082;2023-02-21T10:46:38;8.80;24.70
48328;DHT22;34136;51.022;7.082;2023-02-21T10:52:49;8.90;23.20
48328;DHT22;34136;51.022;7.082;2023-02-21T10:55:35;9.00;23.40
48328;DHT22;34136;51.022;7.082;2023-02-21T10:58:26;9.00;22.90
48328;DHT22;34136;51.022;7.082;2023-02-21T11:01:14;9.10;23.20
48328;DHT22;34136;51.022;7.082;2023-02-21T11:07:11;9.10;21.80
48328;DHT22;34136;51.022;7.082;2023-02-21T11:09:58;9.10;23.00
48328;DHT22;34136;51.022;7.082;2023-02-21T11:12:44;9.20;22.50
48328;DHT22;34136;51.022;7.082;2023-02-21T11:15:47;9.20;22.10
48328;DHT22;34136;51.022;7.082;2023-02-21T11:18:33;9.30;21.80
48328;DHT22;34136;51.022;7.082;2023-02-21T11:21:19;9.30;19.80
48328;DHT22;34136;51.022;7.082;2023-02-21T11:24:07;9.40;19.30
48328;DHT22;34136;51.022;7.082;2023-02-21T11:26:55;9.40;18.70
48328;DHT22;34136;51.022;7.082;2023-02-21T11:29:43;9.40;19.20
48328;DHT22;34136;51.022;7.082;2023-02-21T11:32:35;9.50;18.80
48328;DHT22;34136;51.022;7.082;2023-02-21T11:35:29;9.60;18.30
48328;DHT22;34136;51.022;7.082;2023-02-21T11:46:45;9.60;18.60
48328;DHT22;34136;51.022;7.082;2023-02-21T11:49:43;9.60;18.50
48328;DHT22;34136;51.022;7.082;2023-02-21T11:52:37;9.50;17.40
48328;DHT22;34136;51.022;7.082;2023-02-21T11:55:27;9.60;17.50
48328;DHT22;34136;51.022;7.082;2023-02-21T11:58:28;9.60;17.10
48328;DHT22;34136;51.022;7.082;2023-02-21T12:01:27;9.70;17.70
48328;DHT22;34136;51.022;7.082;2023-02-21T12:07:32;9.80;16.00
48328;DHT22;34136;51.022;7.082;2023-02-21T12:10:50;9.90;16.10
48328;DHT22;34136;51.022;7.082;2023-02-21T12:20:21;9.90;13.90
48328;DHT22;34136;51.022;7.082;2023-02-21T12:24:12;9.90;14.50
48328;DHT22;34136;51.022;7.082;2023-02-21T12:29:40;10.10;15.60
48328;DHT22;34136;51.022;7.082;2023-02-21T12:38:39;10.10;15.10
48328;DHT22;34136;51.022;7.082;2023-02-21T12:47:46;10.20;14.60
48328;DHT22;34136;51.022;7.082;2023-02-21T12:50:49;10.10;13.80
48328;DHT22;34136;51.022;7.082;2023-02-21T12:54:16;10.20;14.80
48328;DHT22;34136;51.022;7.082;2023-02-21T12:57:11;10.40;13.40
48328;DHT22;34136;51.022;7.082;2023-02-21T13:00:17;10.40;12.70
48328;DHT22;34136;51.022;7.082;2023-02-21T13:06:29;10.40;12.70
48328;DHT22;34136;51.022;7.082;2023-02-21T13:12:22;10.50;13.10
48328;DHT22;34136;51.022;7.082;2023-02-21T13:24:25;10.70;13.30
48328;DHT22;34136;51.022;7.082;2023-02-21T13:30:57;10.60;11.30
48328;DHT22;34136;51.022;7.082;2023-02-21T13:39:30;10.80;12.60
48328;DHT22;34136;51.022;7.082;2023-02-21T13:52:36;11.00;10.40
48328;DHT22;34136;51.022;7.082;2023-02-21T13:55:37;11.00;10.60
48328;DHT22;34136;51.022;7.082;2023-02-21T13:58:43;11.00;10.80
48328;DHT22;34136;51.022;7.082;2023-02-21T14:04:57;11.10;11.20
48328;DHT22;34136;51.022;7.082;2023-02-21T14:08:07;11.20;10.60
48328;DHT22;34136;51.022;7.082;2023-02-21T14:11:47;11.20;9.70
48328;DHT22;34136;51.022;7.082;2023-02-21T14:14:27;11.10;10.20
48328;DHT22;34136;51.022;7.082;2023-02-21T14:17:15;10.90;10.60
48328;DHT22;34136;51.022;7.082;2023-02-21T14:20:01;10.90;10.90
48328;DHT22;34136;51.022;7.082;2023-02-21T14:22:50;10.90;11.20
48328;DHT22;34136;51.022;7.082;2023-02-21T14:25:37;11.10;11.70
48328;DHT22;34136;51.022;7.082;2023-02-21T14:32:16;11.00;10.90
48328;DHT22;34136;51.022;7.082;2023-02-21T14:35:34;11.00;11.30
48328;DHT22;34136;51.022;7.082;2023-02-21T14:38:22;11.10;11.00
48328;DHT22;34136;51.022;7.082;2023-02-21T14:44:26;11.30;9.20
48328;DHT22;34136;51.022;7.082;2023-02-21T15:04:31;11.10;10.70
48328;DHT22;34136;51.022;7.082;2023-02-21T15:10:40;11.10;10.10
48328;DHT22;34136;51.022;7.082;2023-02-21T15:13:30;11.00;10.70
48328;DHT22;34136;51.022;7.082;2023-02-21T15:16:17;10.90;11.40
48328;DHT22;34136;51.022;7.082;2023-02-21T15:19:03;10.90;11.20
48328;DHT22;34136;51.022;7.082;2023-02-21T15:27:56;10.80;12.20
48328;DHT22;34136;51.022;7.082;2023-02-21T15:31:15;10.70;13.10
48328;DHT22;34136;51.022;7.082;2023-02-21T15:34:00;10.70;13.50
48328;DHT22;34136;51.022;7.082;2023-02-21T15:37:23;10.70;13.00
48328;DHT22;34136;51.022;7.082;2023-02-21T15:40:16;10.70;13.10
48328;DHT22;34136;51.022;7.082;2023-02-21T15:43:03;10.70;13.20
48328;DHT22;34136;51.022;7.082;2023-02-21T15:45:52;10.60;13.30
48328;DHT22;34136;51.022;7.082;2023-02-21T15:48:40;10.60;13.60
48328;DHT22;34136;51.022;7.082;2023-02-21T15:51:26;10.60;13.30
48328;DHT22;34136;51.022;7.082;2023-02-21T15:57:21;10.70;13.60
48328;DHT22;34136;51.022;7.082;2023-02-21T16:06:26;10.40;13.70
48328;DHT22;34136;51.022;7.082;2023-02-21T16:15:00;10.30;14.60
48328;DHT22;34136;51.022;7.082;2023-02-21T16:17:52;10.20;14.20
48328;DHT22;34136;51.022;7.082;2023-02-21T16:20:40;10.20;14.90
48328;DHT22;34136;51.022;7.082;2023-02-21T16:23:41;10.10;14.90
48328;DHT22;34136;51.022;7.082;2023-02-21T16:26:28;10.10;15.40
48328;DHT22;34136;51.022;7.082;2023-02-21T16:29:14;10.00;15.10
48328;DHT22;34136;51.022;7.082;2023-02-21T16:32:01;10.00;15.80
48328;DHT22;34136;51.022;7.082;2023-02-21T16:34:50;9.90;15.80
48328;DHT22;34136;51.022;7.082;2023-02-21T16:37:37;9.80;16.20
48328;DHT22;34136;51.022;7.082;2023-02-21T16:40:26;9.80;16.30
48328;DHT22;34136;51.022;7.082;2023-02-21T16:43:23;9.80;15.80
48328;DHT22;34136;51.022;7.082;2023-02-21T16:46:10;9.70;16.10
48328;DHT22;34136;51.022;7.082;2023-02-21T16:48:57;9.60;17.00
48328;DHT22;34136;51.022;7.082;2023-02-21T16:51:43;9.60;17.30
48328;DHT22;34136;51.022;7.082;2023-02-21T16:54:29;9.60;16.70
48328;DHT22;34136;51.022;7.082;2023-02-21T16:57:16;9.60;16.40
48328;DHT22;34136;51.022;7.082;2023-02-21T17:00:03;9.60;16.60
48328;DHT22;34136;51.022;7.082;2023-02-21T17:02:51;9.70;16.30
48328;DHT22;34136;51.022;7.082;2023-02-21T17:05:38;9.70;16.00
48328;DHT22;34136;51.022;7.082;2023-02-21T17:08:24;9.70;15.60
48328;DHT22;34136;51.022;7.082;2023-02-21T17:11:11;9.70;15.70
48328;DHT22;34136;51.022;7.082;2023-02-21T17:13:58;9.60;15.30
48328;DHT22;34136;51.022;7.082;2023-02-21T17:16:44;9.60;15.40
48328;DHT22;34136;51.022;7.082;2023-02-21T17:19:30;9.60;15.00
48328;DHT22;34136;51.022;7.082;2023-02-21T17:22:19;9.60;15.30
48328;DHT22;34136;51.022;7.082;2023-02-21T17:25:06;9.50;15.40
48328;DHT22;34136;51.022;7.082;2023-02-21T17:27:52;9.50;15.10
48328;DHT22;34136;51.022;7.082;2023-02-21T17:30:39;9.40;15.20
48328;DHT22;34136;51.022;7.082;2023-02-21T17:33:25;9.30;15.50
48328;DHT22;34136;51.022;7.082;2023-02-21T17:36:16;9.40;15.30
48328;DHT22;34136;51.022;7.082;2023-02-21T17:39:03;9.40;15.30
48328;DHT22;34136;51.022;7.082;2023-02-21T17:41:50;9.30;15.20
48328;DHT22;34136;51.022;7.082;2023-02-21T17:44:42;9.30;15.60
48328;DHT22;34136;51.022;7.082;2023-02-21T17:47:28;9.20;15.50
48328;DHT22;34136;51.022;7.082;2023-02-21T17:50:14;9.20;15.30
48328;DHT22;34136;51.022;7.082;2023-02-21T17:53:01;9.10;15.50
48328;DHT22;34136;51.022;7.082;2023-02-21T17:55:47;9.10;15.60
48328;DHT22;34136;51.022;7.082;2023-02-21T17:58:34;9.00;15.80
48328;DHT22;34136;51.022;7.082;2023-02-21T18:01:20;9.00;15.90
48328;DHT22;34136;51.022;7.082;2023-02-21T18:04:07;9.10;15.60
48328;DHT22;34136;51.022;7.082;2023-02-21T18:06:53;9.00;15.20
48328;DHT22;34136;51.022;7.082;2023-02-21T18:09:39;9.00;15.00
48328;DHT22;34136;51.022;7.082;2023-02-21T18:12:25;9.00;15.20
48328;DHT22;34136;51.022;7.082;2023-02-21T18:15:13;8.80;16.90
48328;DHT22;34136;51.022;7.082;2023-02-21T18:17:59;8.60;18.20
48328;DHT22;34136;51.022;7.082;2023-02-21T18:20:45;8.50;19.70
48328;DHT22;34136;51.022;7.082;2023-02-21T18:23:32;8.50;19.90
48328;DHT22;34136;51.022;7.082;2023-02-21T18:26:19;8.50;20.20
48328;DHT22;34136;51.022;7.082;2023-02-21T18:29:05;8.40;21.20
48328;DHT22;34136;51.022;7.082;2023-02-21T18:31:55;8.40;21.40
48328;DHT22;34136;51.022;7.082;2023-02-21T18:34:43;8.40;21.60
48328;DHT22;34136;51.022;7.082;2023-02-21T18:37:30;8.40;22.00
48328;DHT22;34136;51.022;7.082;2023-02-21T18:40:17;8.40;22.30
48328;DHT22;34136;51.022;7.082;2023-02-21T18:43:04;8.40;22.00
48328;DHT22;34136;51.022;7.082;2023-02-21T18:45:55;8.30;22.50
48328;DHT22;34136;51.022;7.082;2023-02-21T18:48:53;8.30;23.00
48328;DHT22;34136;51.022;7.082;2023-02-21T18:51:41;8.20;23.40
48328;DHT22;34136;51.022;7.082;2023-02-21T18:54:27;8.20;23.80
48328;DHT22;34136;51.022;7.082;2023-02-21T18:57:19;8.20;24.20
48328;DHT22;34136;51.022;7.082;2023-02-21T19:00:12;8.20;24.20
48328;DHT22;34136;51.022;7.082;2023-02-21T19:37:09;8.20;25.00
48328;DHT22;34136;51.022;7.082;2023-02-21T19:39:56;8.20;24.90
48328;DHT22;34136;51.022;7.082;2023-02-21T19:42:42;8.20;25.00
48328;DHT22;34136;51.022;7.082;2023-02-21T19:45:29;8.20;24.70
48328;DHT22;34136;51.022;7.082;2023-02-21T19:48:16;8.10;24.60
48328;DHT22;34136;51.022;7.082;2023-02-21T19:51:02;8.10;25.40
48328;DHT22;34136;51.022;7.082;2023-02-21T19:53:48;8.10;25.50
48328;DHT22;34136;51.022;7.082;2023-02-21T19:56:34;8.20;25.40
48328;DHT22;34136;51.022;7.082;2023-02-21T19:59:21;8.00;24.90
48328;DHT22;34136;51.022;7.082;2023-02-21T20:02:09;7.90;26.00
48328;DHT22;34136;51.022;7.082;2023-02-21T20:04:56;8.10;26.40
48328;DHT22;34136;51.022;7.082;2023-02-21T20:07:42;8.20;26.30
48328;DHT22;34136;51.022;7.082;2023-02-21T20:10:28;8.30;25.80
48328;DHT22;34136;51.022;7.082;2023-02-21T20:13:14;8.20;24.80
48328;DHT22;34136;51.022;7.082;2023-02-21T20:16:01;8.20;25.50
48328;DHT22;34136;51.022;7.082;2023-02-21T20:18:48;8.20;25.20
48328;DHT22;34136;51.022;7.082;2023-02-21T20:21:36;8.20;25.10
48328;DHT22;34136;51.022;7.082;2023-02-21T20:24:22;8.20;25.00
48328;DHT22;34136;51.022;7.082;2023-02-21T20:27:08;8.10;25.60
48328;DHT22;34136;51.022;7.082;2023-02-21T20:29:55;8.10;26.10
48328;DHT22;34136;51.022;7.082;2023-02-21T20:32:42;8.20;26.40
48328;DHT22;34136;51.022;7.082;2023-02-21T20:35:28;8.20;25.70
48328;DHT22;34136;51.022;7.082;2023-02-21T20:38:14;8.30;25.20
48328;DHT22;34136;51.022;7.082;2023-02-21T20:41:01;8.20;24.70
48328;DHT22;34136;51.022;7.082;2023-02-21T20:43:47;8.20;24.70
48328;DHT22;34136;51.022;7.082;2023-02-21T20:46:33;8.10;24.30
48328;DHT22;34136;51.022;7.082;2023-02-21T20:49:19;8.10;24.40
48328;DHT22;34136;51.022;7.082;2023-02-21T20:52:06;8.10;23.90
48328;DHT22;34136;51.022;7.082;2023-02-21T20:54:53;8.10;23.70
48328;DHT22;34136;51.022;7.082;2023-02-21T20:57:39;8.00;23.40
48328;DHT22;34136;51.022;7.082;2023-02-21T21:00:25;8.00;23.50
48328;DHT22;34136;51.022;7.082;2023-02-21T21:03:11;7.90;23.70
48328;DHT22;34136;51.022;7.082;2023-02-21T21:05:57;7.90;24.00
48328;DHT22;34136;51.022;7.082;2023-02-21T21:08:43;7.70;24.60
48328;DHT22;34136;51.022;7.082;2023-02-21T21:11:30;7.70;25.10
48328;DHT22;34136;51.022;7.082;2023-02-21T21:14:15;7.80;24.80
48328;DHT22;34136;51.022;7.082;2023-02-21T21:17:02;7.80;25.30
48328;DHT22;34136;51.022;7.082;2023-02-21T21:19:49;7.90;25.10
48328;DHT22;34136;51.022;7.082;2023-02-21T21:22:35;7.90;24.50
48328;DHT22;34136;51.022;7.082;2023-02-21T21:25:21;8.00;24.00
48328;DHT22;34136;51.022;7.082;2023-02-21T21:28:08;8.00;23.80
48328;DHT22;34136;51.022;7.082;2023-02-21T21:30:54;8.00;23.60